createdAt,value
2018-09-10T00:00:52.424Z,73.80
2018-09-10T00:03:20.433Z,73.90
2018-09-10T00:05:47.939Z,72.70
2018-09-10T00:08:15.361Z,73.40
2018-09-10T00:10:42.876Z,72.90
2018-09-10T00:13:10.994Z,72.60
2018-09-10T00:15:38.546Z,71.30
2018-09-10T00:18:06.148Z,71.60
2018-09-10T00:20:33.579Z,72.30
2018-09-10T00:23:02.345Z,75.30
2018-09-10T00:25:30.890Z,78.30
2018-09-10T00:27:58.976Z,80.40
2018-09-10T00:30:26.556Z,80.50
2018-09-10T00:32:54.082Z,81.60
2018-09-10T00:35:36.288Z,81.00
2018-09-10T00:38:03.884Z,79.90
2018-09-10T00:40:37.430Z,79.50
2018-09-10T00:45:52.717Z,79.60
2018-09-10T00:48:20.131Z,78.40
2018-09-10T00:50:49.143Z,77.70
2018-09-10T00:53:16.818Z,78.30
2018-09-10T00:55:44.286Z,79.00
2018-09-10T00:58:11.915Z,77.50
2018-09-10T01:00:39.590Z,77.10
2018-09-10T01:08:18.325Z,77.60
2018-09-10T01:10:45.997Z,78.60
2018-09-10T01:16:06.309Z,77.60
2018-09-10T01:21:45.052Z,78.00
2018-09-10T01:24:12.858Z,78.30
2018-09-10T01:26:40.404Z,78.40
2018-09-10T01:29:29.588Z,79.10
2018-09-10T01:31:57.233Z,79.50
2018-09-10T01:40:27.369Z,80.10
2018-09-10T01:42:55.042Z,80.20
2018-09-10T01:45:22.574Z,80.50
2018-09-10T01:47:50.547Z,80.80
2018-09-10T01:50:18.380Z,82.10
2018-09-10T01:52:45.977Z,82.30
2018-09-10T01:55:13.578Z,83.00
2018-09-10T01:57:41.105Z,83.50
2018-09-10T02:00:08.679Z,83.80
2018-09-10T02:02:36.807Z,83.70
2018-09-10T02:05:05.573Z,83.40
2018-09-10T02:07:33.160Z,85.80
2018-09-10T02:10:00.634Z,87.00
2018-09-10T02:12:28.066Z,86.20
2018-09-10T02:15:02.375Z,85.20
2018-09-10T02:17:30.757Z,85.00
2018-09-10T02:19:58.271Z,84.60
2018-09-10T02:22:38.650Z,84.90
2018-09-10T02:33:56.036Z,83.20
2018-09-10T02:39:26.641Z,83.30
2018-09-10T02:41:54.242Z,84.90
2018-09-10T02:44:21.849Z,85.20
2018-09-10T02:46:49.421Z,85.60
2018-09-10T02:49:16.954Z,85.30
2018-09-10T02:52:13.252Z,85.20
2018-09-10T02:54:40.728Z,85.50
2018-09-10T02:57:08.518Z,85.00
2018-09-10T02:59:36.091Z,85.40
2018-09-10T03:02:03.558Z,86.10
2018-09-10T03:04:31.203Z,85.20
2018-09-10T03:06:59.058Z,84.60
2018-09-10T03:09:26.429Z,84.30
2018-09-10T03:12:16.686Z,84.10
2018-09-10T03:14:44.246Z,84.00
2018-09-10T03:17:11.832Z,84.00
2018-09-10T03:19:39.417Z,83.60
2018-09-10T03:22:18.653Z,83.80
2018-09-10T03:24:46.400Z,84.00
2018-09-10T03:27:13.979Z,85.20
2018-09-10T03:29:41.540Z,84.40
2018-09-10T03:32:09.039Z,84.80
2018-09-10T03:34:36.527Z,84.50
2018-09-10T03:37:06.604Z,84.80
2018-09-10T03:39:34.125Z,84.20
2018-09-10T03:42:02.102Z,84.10
2018-09-10T03:44:29.682Z,84.10
2018-09-10T03:46:57.227Z,84.40
2018-09-10T03:49:24.604Z,84.70
2018-09-10T03:51:52.340Z,84.80
2018-09-10T03:54:20.007Z,84.30
2018-09-10T03:56:47.632Z,83.80
2018-09-10T03:59:15.056Z,83.90
2018-09-10T04:01:42.548Z,84.20
2018-09-10T04:04:13.784Z,84.10
2018-09-10T04:06:41.287Z,84.50
2018-09-10T04:09:09.463Z,84.40
2018-09-10T04:11:37.029Z,84.00
2018-09-10T04:14:04.732Z,83.50
2018-09-10T04:16:32.568Z,83.50
2018-09-10T04:19:01.112Z,83.90
2018-09-10T04:21:29.862Z,85.00
2018-09-10T04:23:57.340Z,85.70
2018-09-10T04:26:26.984Z,85.80
2018-09-10T04:28:54.649Z,85.20
2018-09-10T04:31:22.212Z,85.00
2018-09-10T04:33:50.313Z,84.80
2018-09-10T04:36:18.096Z,84.30
2018-09-10T04:38:45.678Z,84.20
2018-09-10T04:41:14.101Z,84.90
2018-09-10T04:43:41.817Z,84.90
2018-09-10T04:46:09.347Z,86.50
2018-09-10T04:48:36.755Z,84.50
2018-09-10T04:51:04.117Z,83.90
2018-09-10T04:53:31.537Z,84.50
2018-09-10T04:55:58.957Z,84.70
2018-09-10T04:58:26.398Z,83.90
2018-09-10T05:00:53.904Z,82.60
2018-09-10T05:03:21.636Z,82.00
2018-09-10T05:05:49.479Z,81.30
2018-09-10T05:08:16.919Z,81.10
2018-09-10T05:10:44.449Z,81.30
2018-09-10T05:13:11.888Z,81.30
2018-09-10T05:15:39.445Z,81.10
2018-09-10T05:18:07.052Z,83.20
2018-09-10T05:20:34.533Z,84.00
2018-09-10T05:23:02.242Z,83.00
2018-09-10T05:25:30.277Z,81.70
2018-09-10T05:28:02.371Z,81.60
2018-09-10T05:30:30.185Z,82.70
2018-09-10T05:33:27.076Z,83.00
2018-09-10T05:39:26.887Z,81.90
2018-09-10T05:41:54.840Z,81.40
2018-09-10T05:55:14.462Z,80.00
2018-09-10T05:57:43.140Z,79.50
2018-09-10T06:03:51.218Z,77.10
2018-09-10T06:06:35.967Z,76.90
2018-09-10T06:09:11.724Z,76.20
2018-09-10T06:11:45.538Z,76.80
2018-09-10T06:14:13.798Z,76.90
2018-09-10T06:19:48.292Z,78.00
2018-09-10T06:22:16.047Z,77.80
2018-09-10T06:24:49.569Z,79.30
2018-09-10T06:39:30.655Z,79.10
2018-09-10T06:41:58.175Z,80.30
2018-09-10T06:44:25.884Z,80.20
2018-09-10T06:46:53.846Z,80.30
2018-09-10T06:49:22.423Z,78.80
2018-09-10T06:51:52.360Z,78.70
2018-09-10T06:54:19.871Z,78.80
2018-09-10T06:56:48.673Z,77.80
2018-09-10T06:59:16.411Z,77.40
2018-09-10T07:01:44.013Z,78.00
2018-09-10T07:04:11.693Z,78.30
2018-09-10T07:06:39.300Z,78.60
2018-09-10T07:09:08.885Z,78.00
2018-09-10T07:11:36.855Z,77.90
2018-09-10T07:14:04.917Z,78.20
2018-09-10T07:16:33.109Z,77.30
2018-09-10T07:19:00.672Z,77.10
2018-09-10T07:21:28.340Z,77.30
2018-09-10T07:23:55.984Z,77.70
2018-09-10T07:26:23.412Z,76.40
2018-09-10T07:28:51.244Z,76.40
2018-09-10T07:31:19.006Z,75.50
2018-09-10T07:33:48.698Z,75.20
2018-09-10T07:36:17.309Z,75.40
2018-09-10T07:38:45.386Z,75.50
2018-09-10T07:41:12.740Z,73.70
2018-09-10T07:43:40.435Z,73.60
2018-09-10T07:46:07.942Z,73.90
2018-09-10T07:48:35.472Z,72.50
2018-09-10T07:51:03.030Z,72.40
2018-09-10T07:53:30.572Z,71.50
2018-09-10T07:55:58.189Z,71.70
2018-09-10T07:58:25.693Z,72.50
2018-09-10T08:00:53.174Z,71.40
2018-09-10T08:03:20.808Z,70.80
2018-09-10T08:05:48.349Z,71.00
2018-09-10T08:08:15.816Z,70.80
2018-09-10T08:10:49.188Z,69.10
2018-09-10T08:13:16.846Z,68.70
2018-09-10T08:15:44.363Z,68.80
2018-09-10T08:18:11.818Z,69.70
2018-09-10T08:20:39.584Z,68.40
2018-09-10T08:23:07.891Z,68.60
2018-09-10T08:25:35.457Z,68.20
2018-09-10T08:28:03.133Z,67.60
2018-09-10T08:30:30.828Z,67.90
2018-09-10T08:32:58.271Z,67.50
2018-09-10T08:35:25.897Z,66.10
2018-09-10T08:37:54.138Z,67.20
2018-09-10T08:40:21.795Z,65.30
2018-09-10T08:43:05.952Z,65.40
2018-09-10T08:45:56.166Z,68.00
2018-09-10T08:51:16.867Z,63.30
2018-09-10T09:02:54.110Z,62.40
2018-09-10T09:05:21.816Z,61.60
2018-09-10T09:13:35.008Z,59.30
2018-09-10T09:16:02.681Z,59.60
2018-09-10T09:27:28.045Z,55.60
2018-09-10T09:32:50.274Z,54.10
2018-09-10T10:03:56.365Z,53.70
2018-09-10T10:08:37.495Z,54.00
2018-09-10T10:11:28.124Z,52.50
2018-09-10T10:13:55.905Z,49.90
2018-09-10T10:16:25.578Z,49.60
2018-09-10T10:19:04.889Z,50.40
2018-09-10T10:21:47.216Z,50.80
2018-09-10T10:24:16.415Z,51.00
2018-09-10T10:26:47.076Z,50.40
2018-09-10T10:29:28.827Z,50.20
2018-09-10T10:32:32.022Z,49.10
2018-09-10T10:35:00.453Z,47.10
2018-09-10T10:37:29.615Z,47.50
2018-09-10T10:45:42.496Z,45.80
2018-09-10T10:48:32.116Z,42.90
2018-09-10T10:51:27.146Z,41.30
2018-09-10T11:02:45.351Z,41.40
2018-09-10T11:06:35.321Z,42.70
2018-09-10T11:09:09.013Z,43.40
2018-09-10T12:02:45.021Z,38.60
2018-09-10T12:08:05.976Z,37.10
2018-09-10T12:10:53.590Z,36.80
2018-09-10T12:13:26.285Z,37.50
2018-09-10T12:28:08.736Z,36.20
2018-09-10T12:30:57.458Z,35.60
2018-09-10T12:34:40.385Z,36.60
2018-09-10T12:37:19.957Z,34.80
2018-09-10T12:46:10.939Z,35.20
2018-09-10T12:48:59.031Z,34.10
2018-09-10T12:54:19.238Z,32.70
2018-09-10T12:56:46.746Z,31.30
2018-09-10T13:02:17.121Z,31.20
2018-09-10T13:10:43.529Z,31.50
2018-09-10T13:13:11.752Z,31.80
2018-09-10T13:15:39.285Z,30.90
2018-09-10T13:18:10.881Z,31.90
2018-09-10T13:20:38.481Z,30.80
2018-09-10T13:23:06.012Z,31.00
2018-09-10T13:25:33.441Z,32.10
2018-09-10T13:28:03.327Z,32.20
2018-09-10T13:30:32.685Z,31.80
2018-09-10T13:36:04.159Z,30.90
2018-09-10T13:38:32.966Z,31.10
2018-09-10T13:41:02.193Z,32.20
2018-09-10T13:43:33.120Z,30.80
2018-09-10T13:55:00.435Z,30.60
2018-09-10T13:57:42.825Z,30.50
2018-09-10T14:00:33.194Z,30.10
2018-09-10T14:08:56.301Z,29.70
2018-09-10T14:11:36.714Z,29.60
2018-09-10T14:15:38.525Z,30.00
2018-09-10T14:18:16.282Z,29.80
2018-09-10T14:20:44.697Z,29.60
2018-09-10T14:23:12.213Z,29.80
2018-09-10T14:25:40.011Z,29.30
2018-09-10T14:37:06.660Z,30.00
2018-09-10T14:39:34.313Z,29.50
2018-09-10T14:45:26.488Z,29.60
2018-09-10T14:54:11.856Z,29.80
2018-09-10T14:56:39.676Z,29.00
2018-09-10T15:02:23.072Z,29.10
2018-09-10T15:05:13.135Z,29.10
2018-09-10T15:07:41.199Z,29.00
2018-09-10T15:16:14.329Z,29.50
2018-09-10T15:18:47.633Z,28.50
2018-09-10T15:21:15.024Z,28.20
2018-09-10T15:26:47.431Z,29.10
2018-09-10T15:32:28.769Z,29.70
2018-09-10T15:43:57.372Z,29.20
2018-09-10T15:46:30.040Z,29.30
2018-09-10T15:49:19.805Z,30.00
2018-09-10T15:51:53.673Z,29.90
2018-09-10T15:54:22.186Z,29.70
2018-09-10T15:56:54.459Z,30.10
2018-09-10T15:59:38.309Z,30.30
2018-09-10T16:02:06.112Z,30.10
2018-09-10T16:04:34.041Z,30.50
2018-09-10T16:07:22.530Z,30.70
2018-09-10T16:09:52.433Z,30.90
2018-09-10T16:12:20.283Z,30.90
2018-09-10T16:15:03.962Z,30.90
2018-09-10T16:20:35.576Z,31.10
2018-09-10T16:35:17.752Z,31.60
2018-09-10T16:52:30.200Z,33.50
2018-09-10T16:57:51.207Z,34.40
2018-09-10T17:03:21.315Z,35.00
2018-09-10T17:20:34.687Z,36.80
2018-09-10T17:29:09.916Z,38.70
2018-09-10T17:37:49.815Z,40.00
2018-09-10T17:43:32.830Z,39.20
2018-09-10T17:52:16.257Z,38.80
2018-09-10T17:57:59.128Z,39.80
2018-09-10T18:00:32.263Z,40.40
2018-09-10T18:06:02.936Z,39.40
2018-09-10T18:08:30.664Z,39.30
2018-09-10T18:17:52.642Z,39.90
2018-09-10T18:20:34.505Z,41.20
2018-09-10T18:23:02.144Z,42.30
2018-09-10T18:25:30.481Z,42.50
2018-09-10T18:28:21.722Z,43.50
2018-09-10T18:30:49.214Z,42.60
2018-09-10T18:33:17.611Z,43.40
2018-09-10T18:35:55.142Z,43.80
2018-09-10T18:38:24.305Z,43.80
2018-09-10T18:40:51.987Z,44.70
2018-09-10T18:49:57.314Z,46.00
2018-09-10T18:52:31.085Z,46.60
2018-09-10T18:55:18.494Z,46.70
2018-09-10T18:57:59.385Z,46.90
2018-09-10T19:06:39.550Z,47.90
2018-09-10T19:09:08.494Z,48.20
2018-09-10T19:11:55.571Z,48.50
2018-09-10T19:14:26.047Z,48.20
2018-09-10T19:16:53.713Z,48.80
2018-09-10T19:22:21.669Z,49.30
2018-09-10T19:24:49.279Z,49.10
2018-09-10T19:27:16.634Z,49.80
2018-09-10T19:29:44.035Z,49.50
2018-09-10T19:32:11.956Z,49.80
2018-09-10T19:34:39.348Z,49.40
2018-09-10T19:37:06.794Z,49.30
2018-09-10T19:39:34.176Z,49.50
2018-09-10T19:42:01.694Z,49.90
2018-09-10T19:44:29.132Z,49.40
2018-09-10T20:39:24.684Z,52.60
2018-09-10T20:41:52.197Z,52.70
2018-09-10T20:44:25.494Z,52.30
2018-09-10T20:46:52.976Z,52.30
2018-09-10T20:49:26.805Z,53.10
2018-09-10T20:54:56.458Z,53.40
2018-09-10T21:00:34.433Z,54.10
2018-09-10T21:06:09.035Z,54.10
2018-09-10T21:14:41.519Z,55.00
2018-09-10T21:20:24.176Z,54.90
2018-09-10T21:23:12.176Z,55.30
2018-09-10T21:25:39.707Z,55.40
2018-09-10T21:34:03.648Z,55.90
2018-09-10T21:42:37.277Z,56.20
2018-09-10T21:45:04.930Z,56.20
2018-09-10T21:50:35.276Z,55.50
2018-09-10T21:56:08.073Z,55.40
2018-09-10T21:58:36.117Z,55.90
2018-09-10T22:01:27.249Z,55.70
2018-09-10T22:03:54.968Z,55.50
2018-09-10T22:18:14.535Z,57.10
2018-09-10T22:44:44.530Z,58.30
2018-09-10T23:20:46.701Z,60.20
2018-09-10T23:41:26.740Z,61.00
2018-09-10T23:44:08.240Z,61.30
2018-09-10T23:49:48.053Z,61.40
2018-09-10T23:52:16.024Z,61.60
2018-09-10T23:54:46.057Z,62.10
2018-09-10T23:57:18.397Z,62.30
2018-09-10T23:59:49.849Z,62.50
